Time;durP1;ratioP1;P1;durP2;ratioP2;P2;SDS_P1;SDS_P2;PMS_P1;PMS_P2;Temp;Humidity;BMP_temperature;BMP_pressure;BME280_temperature;BME280_humidity;BME280_pressure;Samples;Min_cycle;Max_cycle;Signal;HPM_P1;HPM_P2
2023/07/13 00:00:37;;;;;;;14.25;3.35;;;;;;;14.19;100.00;101261.97;5013649;28;20118;-72
2023/07/13 00:03:04;;;;;;;16.83;3.35;;;;;;;14.18;100.00;101265.50;5013717;28;20034;-71
2023/07/13 00:05:29;;;;;;;16.55;3.28;;;;;;;14.17;100.00;101266.41;5013866;28;20030;-72
2023/07/13 00:07:55;;;;;;;16.05;3.35;;;;;;;14.22;100.00;101267.28;5013587;28;20116;-72
2023/07/13 00:10:21;;;;;;;15.73;3.17;;;;;;;14.16;100.00;101270.84;5013764;28;20557;-72
2023/07/13 00:12:47;;;;;;;13.95;3.40;;;;;;;14.14;100.00;101269.97;5013704;28;20029;-72
2023/07/13 00:15:22;;;;;;;14.82;3.40;;;;;;;14.11;100.00;101268.19;5013485;28;20504;-72
2023/07/13 00:17:55;;;;;;;14.10;3.17;;;;;;;14.09;100.00;101264.66;5013486;28;20033;-72
2023/07/13 00:20:24;;;;;;;14.43;3.33;;;;;;;14.07;100.00;101261.13;5013540;28;20488;-72
2023/07/13 00:22:52;;;;;;;14.75;3.30;;;;;;;14.08;100.00;101256.69;5013287;28;20425;-72
2023/07/13 00:25:18;;;;;;;15.43;3.53;;;;;;;14.15;100.00;101263.75;5013264;28;20462;-72
2023/07/13 00:27:43;;;;;;;14.07;3.10;;;;;;;14.10;100.00;101265.56;4995881;28;20037;-72
2023/07/13 00:30:10;;;;;;;15.73;3.33;;;;;;;14.08;100.00;101262.00;4995574;28;20030;-72
2023/07/13 00:32:35;;;;;;;14.80;3.33;;;;;;;14.10;100.00;101262.88;5012973;28;20452;-72
2023/07/13 00:35:03;;;;;;;12.73;3.25;;;;;;;14.08;100.00;101267.31;5013602;28;20121;-72
2023/07/13 00:37:28;;;;;;;16.50;3.80;;;;;;;14.08;100.00;101273.53;5009248;28;20125;-72
2023/07/13 00:39:54;;;;;;;18.35;4.00;;;;;;;13.99;100.00;101273.53;5013031;28;20105;-72
2023/07/13 00:42:19;;;;;;;17.33;3.70;;;;;;;14.01;100.00;101270.88;5013258;28;20548;-67
2023/07/13 00:45:12;;;;;;;16.15;3.60;;;;;;;14.00;100.00;101272.66;5013061;28;20468;-63
2023/07/13 00:47:41;;;;;;;;;;;;;;;13.98;100.00;101282.44;5010369;28;20041;-68
2023/07/13 00:50:10;;;;;;;15.50;3.50;;;;;;;13.95;100.00;101278.00;5012992;28;19917;-68
2023/07/13 00:52:37;;;;;;;17.38;3.60;;;;;;;13.89;100.00;101283.34;5012786;28;20026;-61
2023/07/13 00:55:03;;;;;;;18.02;3.50;;;;;;;13.84;100.00;101279.78;5013164;28;20113;-66
2023/07/13 00:57:28;;;;;;;17.08;3.50;;;;;;;13.84;100.00;101273.59;5012974;28;20462;-68
2023/07/13 00:59:57;;;;;;;16.83;3.53;;;;;;;13.84;100.00;101277.13;5012750;28;20022;-68
2023/07/13 01:02:24;;;;;;;18.30;3.80;;;;;;;13.87;100.00;101273.59;5013304;28;20088;-68
2023/07/13 01:04:49;;;;;;;15.18;3.22;;;;;;;13.86;100.00;101277.13;5012816;28;20105;-68
2023/07/13 01:07:15;;;;;;;14.23;3.38;;;;;;;13.88;100.00;101276.25;5012835;28;20062;-67
2023/07/13 01:09:41;;;;;;;15.43;3.60;;;;;;;13.91;100.00;101267.38;5013219;28;20109;-68
2023/07/13 01:12:07;;;;;;;16.25;4.38;;;;;;;13.88;100.00;101264.75;5012680;28;20036;-68
2023/07/13 01:14:32;;;;;;;21.33;6.35;;;;;;;13.85;100.00;101267.38;5012771;28;20037;-68
2023/07/13 01:17:00;;;;;;;22.00;7.30;;;;;;;13.82;100.00;101273.59;5008800;28;20034;-62
2023/07/13 01:19:35;;;;;;;23.65;8.90;;;;;;;13.80;100.00;101278.03;5012706;28;20030;-67
2023/07/13 01:22:01;;;;;;;24.20;9.52;;;;;;;13.78;100.00;101282.47;5009040;28;20104;-68
2023/07/13 01:24:27;;;;;;;24.05;9.50;;;;;;;13.83;100.00;101288.63;5012787;28;20026;-61
2023/07/13 01:26:52;;;;;;;23.10;8.73;;;;;;;13.82;100.00;101286.91;5012575;28;20041;-61
2023/07/13 01:29:18;;;;;;;23.33;8.10;;;;;;;13.77;100.00;101286.00;5012511;28;20037;-68
2023/07/13 01:31:44;;;;;;;22.75;8.48;;;;;;;13.71;100.00;101283.34;5012558;28;20121;-66
2023/07/13 01:34:10;;;;;;;21.10;6.65;;;;;;;13.67;100.00;101282.47;5012553;28;20050;-66
2023/07/13 01:36:35;;;;;;;20.25;5.80;;;;;;;13.64;100.00;101286.91;5012619;28;20065;-68
2023/07/13 01:39:01;;;;;;;19.05;5.60;;;;;;;13.59;100.00;101287.78;5012705;28;20526;-67
2023/07/13 01:41:27;;;;;;;19.85;5.50;;;;;;;13.59;100.00;101290.44;5012682;28;20038;-65
2023/07/13 01:43:52;;;;;;;17.38;4.70;;;;;;;13.52;100.00;101294.00;5012772;28;20357;-61
2023/07/13 01:46:18;;;;;;;19.83;4.60;;;;;;;13.50;100.00;101301.09;5012601;28;20045;-64
2023/07/13 01:48:43;;;;;;;19.13;4.50;;;;;;;13.48;100.00;101297.53;5012405;28;20092;-64
2023/07/13 01:51:08;;;;;;;18.60;4.43;;;;;;;13.44;100.00;101298.44;5012537;28;20461;-61
2023/07/13 01:53:34;;;;;;;20.95;6.40;;;;;;;13.38;100.00;101296.69;5012399;28;20421;-61
2023/07/13 01:55:59;;;;;;;26.10;11.57;;;;;;;13.37;100.00;101294.03;5012427;28;20445;-68
2023/07/13 01:58:24;;;;;;;26.40;11.80;;;;;;;13.33;100.00;101293.09;5012711;28;20026;-67
2023/07/13 02:00:51;;;;;;;27.67;13.77;;;;;;;13.31;100.00;101299.28;5015889;28;20034;-67
2023/07/13 02:03:17;;;;;;;27.23;13.75;;;;;;;13.25;100.00;101294.84;5015906;28;20065;-67
2023/07/13 02:05:44;;;;;;;25.75;11.38;;;;;;;13.25;100.00;101300.16;5016322;28;20434;-61
2023/07/13 02:08:09;;;;;;;23.58;9.48;;;;;;;13.26;100.00;101301.94;5015852;28;20036;-61
2023/07/13 02:10:36;;;;;;;24.58;8.93;;;;;;;13.25;100.00;101303.72;5015708;28;20117;-72
2023/07/13 02:13:01;;;;;;;21.80;7.13;;;;;;;13.22;100.00;101305.47;5015896;28;20026;-71
2023/07/13 02:15:27;;;;;;;20.17;5.35;;;;;;;13.17;100.00;101313.44;5015633;28;20032;-72
2023/07/13 02:17:52;;;;;;;22.30;5.80;;;;;;;13.16;100.00;101310.78;5015869;28;20114;-71
2023/07/13 02:20:17;;;;;;;19.65;5.10;;;;;;;13.13;100.00;101309.00;5015703;28;20437;-70
2023/07/13 02:22:43;;;;;;;18.83;4.35;;;;;;;13.14;100.00;101304.59;5015533;28;20421;-70
2023/07/13 02:25:08;;;;;;;17.48;4.15;;;;;;;13.09;100.00;101312.53;5015678;28;20110;-70
2023/07/13 02:27:34;;;;;;;17.52;4.07;;;;;;;13.09;100.00;101304.56;5015827;28;20037;-71
2023/07/13 02:29:59;;;;;;;18.38;4.30;;;;;;;13.05;100.00;101308.13;5015471;28;20456;-71
2023/07/13 02:32:25;;;;;;;16.60;4.45;;;;;;;13.02;100.00;101300.16;5015446;28;20046;-71
2023/07/13 02:34:52;;;;;;;18.83;4.40;;;;;;;12.99;100.00;101308.09;5015289;28;20026;-70
2023/07/13 02:37:17;;;;;;;18.67;4.20;;;;;;;12.95;100.00;101306.34;5015247;28;20029;-70
2023/07/13 02:39:43;;;;;;;18.20;4.30;;;;;;;12.91;100.00;101306.31;4997998;28;20034;-69
2023/07/13 02:42:08;;;;;;;20.17;4.95;;;;;;;12.94;100.00;101315.19;5015099;28;20441;-71
2023/07/13 02:44:33;;;;;;;19.00;5.00;;;;;;;12.93;100.00;101309.00;5015172;28;20037;-71
2023/07/13 02:46:59;;;;;;;22.10;6.90;;;;;;;12.94;100.00;101312.53;5011555;28;20033;-71
2023/07/13 02:49:24;;;;;;;23.50;7.20;;;;;;;12.92;100.00;101307.22;4997529;28;20071;-71
2023/07/13 02:51:51;;;;;;;24.52;7.75;;;;;;;12.94;100.00;101313.41;5014918;28;20026;-71
2023/07/13 02:54:16;;;;;;;25.73;8.27;;;;;;;12.89;100.00;101312.50;5015099;28;20030;-71
2023/07/13 02:56:43;;;;;;;23.13;8.00;;;;;;;12.88;100.00;101311.59;5014974;28;20034;-71
2023/07/13 02:59:08;;;;;;;23.35;7.50;;;;;;;12.88;100.00;101313.38;5014848;28;20029;-71
2023/07/13 03:01:35;;;;;;;23.98;7.47;;;;;;;12.87;100.00;101314.25;5015188;28;20045;-70
2023/07/13 03:04:00;;;;;;;21.25;6.40;;;;;;;12.83;100.00;101308.06;5014839;28;20033;-71
2023/07/13 03:06:30;;;;;;;22.67;6.78;;;;;;;12.81;100.00;101306.28;5014700;28;20048;-71
2023/07/13 03:08:55;;;;;;;21.73;6.28;;;;;;;12.81;100.00;101309.81;5014874;28;20121;-71
2023/07/13 03:11:21;;;;;;;22.80;6.15;;;;;;;12.77;100.00;101309.81;5013938;28;20113;-62
2023/07/13 03:13:48;;;;;;;22.52;6.18;;;;;;;12.72;100.00;101310.69;5014581;28;20113;-61
2023/07/13 03:16:15;;;;;;;20.85;5.68;;;;;;;12.69;100.00;101317.75;5014845;28;20108;-70
2023/07/13 03:18:41;;;;;;;21.33;5.50;;;;;;;12.68;100.00;101313.31;5014438;28;20030;-71
2023/07/13 03:21:07;;;;;;;20.17;5.22;;;;;;;12.66;100.00;101317.75;4996878;28;20042;-70
2023/07/13 03:23:32;;;;;;;20.70;5.40;;;;;;;12.65;100.00;101323.94;5014727;28;20034;-69
2023/07/13 03:26:10;;;;;;;21.25;5.10;;;;;;;12.64;100.00;101327.44;5014338;28;20038;-71
2023/07/13 03:28:36;;;;;;;18.90;4.65;;;;;;;12.64;100.00;101323.06;5011044;28;20026;-70
2023/07/13 03:31:07;;;;;;;19.92;5.07;;;;;;;12.65;100.00;101323.94;5014363;28;20497;-68
2023/07/13 03:33:32;;;;;;;21.60;5.53;;;;;;;12.61;100.00;101325.69;5014471;28;20022;-68
2023/07/13 03:35:58;;;;;;;20.52;5.47;;;;;;;12.62;100.00;101329.22;5014125;28;20036;-68
2023/07/13 03:38:24;;;;;;;18.55;5.07;;;;;;;12.62;100.00;101332.75;5014417;28;20097;-64
2023/07/13 03:40:49;;;;;;;22.48;5.70;;;;;;;12.59;100.00;101334.53;5014020;28;20042;-67
2023/07/13 03:43:14;;;;;;;21.70;5.82;;;;;;;12.56;100.00;101330.97;5014277;28;20113;-69
2023/07/13 03:45:40;;;;;;;23.30;6.60;;;;;;;12.59;100.00;101337.19;5014267;28;20037;-67
2023/07/13 03:48:06;;;;;;;24.52;7.35;;;;;;;12.64;100.00;101332.75;5013901;28;20037;-62
2023/07/13 03:50:31;;;;;;;25.15;8.05;;;;;;;12.66;100.00;101339.84;5013849;28;20160;-68
2023/07/13 03:53:00;;;;;;;25.48;8.15;;;;;;;12.66;100.00;101346.94;5014082;28;20117;-68
2023/07/13 03:55:26;;;;;;;26.02;8.32;;;;;;;12.62;100.00;101350.44;5013853;28;20062;-61
2023/07/13 03:57:59;;;;;;;22.75;7.43;;;;;;;12.65;100.00;101355.75;5013832;28;20060;-66
2023/07/13 04:00:25;;;;;;;23.00;7.40;;;;;;;12.67;100.00;101346.06;5013792;28;20042;-63
2023/07/13 04:02:51;;;;;;;23.83;7.10;;;;;;;12.69;100.00;101357.56;5013722;28;20026;-63
2023/07/13 04:05:17;;;;;;;23.42;6.28;;;;;;;12.76;100.00;101356.69;5013872;28;20034;-69
2023/07/13 04:07:42;;;;;;;19.85;5.53;;;;;;;12.89;100.00;101355.84;5014125;28;20030;-68
2023/07/13 04:10:08;;;;;;;21.02;5.50;;;;;;;12.97;100.00;101362.94;5013688;28;20037;-65
2023/07/13 04:12:33;;;;;;;20.10;5.63;;;;;;;13.03;100.00;101368.25;5013480;28;20121;-68
2023/07/13 04:14:59;;;;;;;20.40;5.57;;;;;;;13.08;100.00;101367.38;5013684;28;20478;-69
2023/07/13 04:17:24;;;;;;;20.80;6.00;;;;;;;13.16;100.00;101364.75;4995925;28;20048;-68
2023/07/13 04:19:50;;;;;;;21.35;6.20;;;;;;;13.23;100.00;101369.19;5013586;28;20051;-68
2023/07/13 04:22:15;;;;;;;20.73;6.03;;;;;;;13.29;100.00;101370.09;5012650;28;20030;-68
2023/07/13 04:24:41;;;;;;;23.30;6.82;;;;;;;13.37;100.00;101371.91;5013335;28;20022;-65
2023/07/13 04:27:06;;;;;;;22.17;6.70;;;;;;;13.40;100.00;101377.22;5013540;28;20040;-61
2023/07/13 04:29:32;;;;;;;23.58;7.40;;;;;;;13.44;100.00;101375.47;5013740;28;20032;-67
2023/07/13 04:31:57;;;;;;;23.58;7.20;;;;;;;13.51;100.00;101377.22;5013005;28;20120;-61
2023/07/13 04:34:23;;;;;;;23.25;7.40;;;;;;;13.57;100.00;101368.38;5013178;28;20123;-68
2023/07/13 04:36:49;;;;;;;24.98;7.15;;;;;;;13.59;100.00;101363.97;5013597;28;20030;-68
2023/07/13 04:39:15;;;;;;;26.90;7.85;;;;;;;13.64;100.00;101367.47;5013169;28;20449;-62
2023/07/13 04:41:40;;;;;;;23.40;7.18;;;;;;;13.73;100.00;101383.44;5013347;28;20509;-68
2023/07/13 04:44:05;;;;;;;24.75;7.93;;;;;;;13.86;100.00;101381.66;5013039;28;20030;-66
2023/07/13 04:46:31;;;;;;;25.60;8.20;;;;;;;13.89;100.00;101384.31;5013003;28;20076;-69
2023/07/13 04:48:57;;;;;;;24.92;7.97;;;;;;;13.99;100.00;101384.28;5013440;28;20081;-62
2023/07/13 04:51:23;;;;;;;24.95;8.18;;;;;;;14.05;100.00;101395.81;5013128;28;20065;-67
2023/07/13 04:53:48;;;;;;;26.15;9.00;;;;;;;14.10;100.00;101398.47;5013041;28;20401;-66
2023/07/13 04:56:13;;;;;;;25.83;8.90;;;;;;;14.16;100.00;101386.94;5013350;28;20026;-69
2023/07/13 04:58:40;;;;;;;27.90;8.73;;;;;;;14.23;100.00;101394.91;5012804;28;20026;-68
2023/07/13 05:01:06;;;;;;;25.40;9.15;;;;;;;14.30;100.00;101388.66;5012705;28;20061;-69
2023/07/13 05:03:31;;;;;;;26.67;9.80;;;;;;;14.40;100.00;101388.63;5013222;28;20478;-68
2023/07/13 05:05:59;;;;;;;27.88;10.60;;;;;;;14.43;100.00;101397.50;5013130;28;20037;-69
2023/07/13 05:08:25;;;;;;;28.50;10.63;;;;;;;14.52;100.00;101401.91;5013027;28;20087;-64
2023/07/13 05:10:51;;;;;;;27.13;10.30;;;;;;;14.61;100.00;101398.34;5012911;28;20025;-68
2023/07/13 05:13:16;;;;;;;26.33;10.90;;;;;;;14.67;100.00;101393.03;5012764;28;20034;-67
2023/07/13 05:15:42;;;;;;;27.33;11.25;;;;;;;14.72;100.00;101396.56;5012692;28;20033;-70
2023/07/13 05:18:07;;;;;;;29.73;11.68;;;;;;;14.73;100.00;101403.63;5012955;28;20221;-71
2023/07/13 05:20:32;;;;;;;29.95;11.50;;;;;;;14.72;100.00;101414.28;5012659;28;20476;-68
2023/07/13 05:22:58;;;;;;;30.25;11.80;;;;;;;14.74;100.00;101404.53;5012622;28;20370;-71
2023/07/13 05:25:23;;;;;;;28.63;11.32;;;;;;;14.82;100.00;101416.94;5012801;28;20045;-71
2023/07/13 05:27:48;;;;;;;28.30;11.98;;;;;;;14.87;100.00;101414.22;5012555;28;20030;-69
2023/07/13 05:30:14;;;;;;;28.40;11.75;;;;;;;14.89;100.00;101423.09;5012814;28;20053;-70
2023/07/13 05:32:39;;;;;;;29.33;11.70;;;;;;;14.92;100.00;101431.06;5012464;28;20061;-70
2023/07/13 05:35:06;;;;;;;28.38;11.63;;;;;;;14.96;100.00;101418.63;5015503;28;20062;-66
2023/07/13 05:37:31;;;;;;;26.58;11.27;;;;;;;14.98;100.00;101412.41;5012751;28;20030;-69
2023/07/13 05:39:56;;;;;;;27.55;11.55;;;;;;;14.99;100.00;101416.81;5016370;28;20075;-70
2023/07/13 05:42:22;;;;;;;29.65;12.15;;;;;;;15.09;100.00;101425.66;5016181;28;20481;-74
2023/07/13 05:44:47;;;;;;;28.02;11.57;;;;;;;15.16;100.00;101424.75;5005138;28;20413;-61
2023/07/13 05:47:14;;;;;;;27.42;11.35;;;;;;;15.24;100.00;101419.34;5007340;28;20026;-64
2023/07/13 05:49:40;;;;;;;27.40;11.70;;;;;;;15.34;100.00;101423.72;5006346;28;20037;-65
2023/07/13 05:52:05;;;;;;;27.52;11.60;;;;;;;15.37;100.00;101419.31;5013181;28;20473;-61
2023/07/13 05:54:31;;;;;;;29.13;12.25;;;;;;;15.39;100.00;101428.16;5015964;28;20160;-62
2023/07/13 05:56:56;;;;;;;27.85;12.20;;;;;;;15.34;100.00;101431.72;5015923;28;20054;-61
2023/07/13 05:59:22;;;;;;;29.83;12.20;;;;;;;15.35;100.00;101427.31;5016037;28;20088;-61
2023/07/13 06:01:49;;;;;;;27.10;12.15;;;;;;;15.40;100.00;101440.59;5015811;28;20545;-70
2023/07/13 06:04:14;;;;;;;30.35;13.35;;;;;;;15.55;100.00;101429.81;5014943;28;20024;-70
2023/07/13 06:06:39;;;;;;;28.60;12.43;;;;;;;15.64;100.00;101435.09;5015973;28;20025;-68
2023/07/13 06:09:05;;;;;;;28.13;12.45;;;;;;;15.83;100.00;101440.31;5015868;28;20033;-70
2023/07/13 06:11:30;;;;;;;27.48;11.75;;;;;;;15.94;100.00;101443.75;5015838;28;20022;-68
2023/07/13 06:13:56;;;;;;;29.90;12.63;;;;;;;15.94;100.00;101449.09;5015661;28;20030;-70
2023/07/13 06:16:22;;;;;;;27.38;12.20;;;;;;;15.93;100.00;101458.00;5015370;28;20308;-69
2023/07/13 06:18:47;;;;;;;29.45;12.73;;;;;;;15.85;100.00;101442.06;5015749;28;20034;-69
2023/07/13 06:21:18;;;;;;;30.95;12.57;;;;;;;15.93;100.00;101460.69;5015513;28;20089;-69
2023/07/13 06:23:47;;;;;;;30.35;12.45;;;;;;;15.99;100.00;101454.41;5015398;28;20084;-72
2023/07/13 06:26:13;;;;;;;28.83;12.82;;;;;;;16.00;100.00;101451.72;5015369;28;20540;-69
2023/07/13 06:28:39;;;;;;;27.25;12.07;;;;;;;15.96;100.00;101451.75;5018832;28;20126;-68
2023/07/13 06:31:07;;;;;;;28.85;12.18;;;;;;;15.99;100.00;101465.94;5015289;28;20034;-71
2023/07/13 06:33:33;;;;;;;29.27;13.05;;;;;;;15.85;100.00;101465.19;5015146;28;20034;-68
2023/07/13 06:35:58;;;;;;;26.92;12.20;;;;;;;15.78;100.00;101466.09;5015586;28;20462;-71
2023/07/13 06:38:23;;;;;;;28.23;12.48;;;;;;;15.74;100.00;101470.56;5015448;28;20527;-70
2023/07/13 06:40:49;;;;;;;27.05;12.07;;;;;;;15.78;100.00;101467.00;5014771;28;20446;-70
2023/07/13 06:43:14;;;;;;;28.42;12.43;;;;;;;15.84;100.00;101464.31;5015002;28;20033;-70
2023/07/13 06:45:42;;;;;;;27.48;12.07;;;;;;;15.94;100.00;101465.09;5014014;28;20116;-68
2023/07/13 06:48:07;;;;;;;29.25;12.50;;;;;;;16.10;100.00;101473.84;5015150;28;20026;-68
2023/07/13 06:50:33;;;;;;;28.23;12.63;;;;;;;16.28;100.00;101466.56;5014818;28;20036;-73
2023/07/13 06:52:59;;;;;;;28.25;12.10;;;;;;;16.41;100.00;101470.91;5018165;28;20034;-61
2023/07/13 06:55:25;;;;;;;27.15;11.93;;;;;;;16.35;100.00;101474.53;5015047;28;20042;-60
2023/07/13 06:57:50;;;;;;;27.58;12.50;;;;;;;16.44;100.00;101478.00;5014958;28;20022;-61
2023/07/13 07:00:16;;;;;;;26.05;11.15;;;;;;;16.48;100.00;101474.41;5014901;28;20500;-61
2023/07/13 07:02:41;;;;;;;29.25;11.65;;;;;;;16.44;100.00;101486.00;5014885;28;20529;-61
2023/07/13 07:05:06;;;;;;;26.92;11.27;;;;;;;16.46;100.00;101486.88;5014133;28;20026;-64
2023/07/13 07:07:32;;;;;;;27.48;11.18;;;;;;;16.43;100.00;101481.56;5014535;28;20041;-61
2023/07/13 07:09:57;;;;;;;26.60;11.20;;;;;;;16.47;100.00;101486.88;5015002;28;20446;-61
2023/07/13 07:12:22;;;;;;;25.77;11.18;;;;;;;16.54;100.00;101488.56;5014479;28;20030;-61
2023/07/13 07:14:48;;;;;;;28.02;11.35;;;;;;;16.75;100.00;101486.56;5014379;28;20034;-61
2023/07/13 07:17:13;;;;;;;26.90;11.00;;;;;;;16.80;100.00;101479.38;5014200;28;20029;-61
2023/07/13 07:19:38;;;;;;;28.40;11.07;;;;;;;16.80;100.00;101475.84;5014359;28;20037;-61
2023/07/13 07:22:04;;;;;;;25.45;10.38;;;;;;;16.84;100.00;101481.09;5008223;28;20030;-61
2023/07/13 07:24:29;;;;;;;25.98;10.43;;;;;;;16.95;100.00;101478.38;5004790;28;20033;-61
2023/07/13 07:26:55;;;;;;;25.23;10.48;;;;;;;17.05;100.00;101479.13;5003527;28;20545;-61
2023/07/13 07:29:20;;;;;;;24.63;10.48;;;;;;;17.12;100.00;101486.16;5014353;28;20401;-61
2023/07/13 07:31:45;;;;;;;25.95;10.85;;;;;;;17.27;100.00;101486.84;4996292;28;20041;-61
2023/07/13 07:34:11;;;;;;;24.17;10.82;;;;;;;17.39;100.00;101490.25;5004337;28;20057;-61
2023/07/13 07:36:36;;;;;;;24.33;10.23;;;;;;;17.71;100.00;101496.06;5004358;28;20481;-61
2023/07/13 07:39:02;;;;;;;24.58;10.75;;;;;;;17.71;100.00;101486.22;5003581;28;20069;-61
2023/07/13 07:41:27;;;;;;;24.88;10.50;;;;;;;17.83;100.00;101486.97;5013530;28;20034;-61
2023/07/13 07:43:52;;;;;;;24.08;9.65;;;;;;;17.79;100.00;101488.78;5013990;28;20092;-61
2023/07/13 07:46:17;;;;;;;25.02;9.48;;;;;;;17.68;100.00;101490.72;5013856;28;20544;-61
2023/07/13 07:48:43;;;;;;;23.58;9.50;;;;;;;17.66;100.00;101484.53;5013715;28;20126;-63
2023/07/13 07:51:08;;;;;;;24.73;9.73;;;;;;;17.84;100.00;101486.03;5009960;28;20152;-61
2023/07/13 07:53:33;;;;;;;24.25;9.10;;;;;;;17.89;100.00;101500.22;5017251;28;20065;-69
2023/07/13 07:55:59;;;;;;;23.95;9.00;;;;;;;17.98;100.00;101489.41;5013674;28;20497;-69
2023/07/13 07:58:24;;;;;;;23.83;8.75;;;;;;;18.17;100.00;101492.66;5013387;28;20367;-62
2023/07/13 08:00:49;;;;;;;24.98;8.77;;;;;;;18.27;100.00;101493.38;5013507;28;20117;-65
2023/07/13 08:03:15;;;;;;;24.25;9.23;;;;;;;18.18;100.00;101494.44;5013687;28;20049;-61
2023/07/13 08:05:40;;;;;;;22.48;8.38;;;;;;;18.08;100.00;101512.41;5013678;28;20038;-64
2023/07/13 08:08:06;;;;;;;22.13;7.65;;;;;;;17.80;100.00;101493.22;5013200;28;20029;-67
2023/07/13 08:10:31;;;;;;;20.90;7.97;;;;;;;17.70;100.00;101494.28;5011464;28;20030;-68
2023/07/13 08:12:56;;;;;;;20.30;7.75;;;;;;;17.64;100.00;101503.28;5012325;28;20021;-68
2023/07/13 08:15:22;;;;;;;23.00;7.95;;;;;;;17.86;100.00;101506.50;5012031;28;20397;-69
2023/07/13 08:17:48;;;;;;;23.35;7.85;;;;;;;18.42;100.00;101503.81;5013011;28;20037;-71
2023/07/13 08:20:14;;;;;;;22.52;7.80;;;;;;;18.81;100.00;101501.31;5013333;28;20068;-69
2023/07/13 08:22:39;;;;;;;22.30;8.30;;;;;;;18.92;100.00;101503.81;5013062;28;20065;-71
2023/07/13 08:25:05;;;;;;;23.25;8.00;;;;;;;19.07;100.00;101497.25;5013317;28;20030;-69
2023/07/13 08:27:31;;;;;;;21.30;7.00;;;;;;;19.39;100.00;101495.69;5012935;28;20029;-69
2023/07/13 08:29:56;;;;;;;21.27;7.90;;;;;;;19.33;100.00;101511.91;5012989;28;20405;-70
2023/07/13 08:32:22;;;;;;;21.30;8.00;;;;;;;18.86;100.00;101506.63;4991254;28;20090;-68
2023/07/13 08:34:48;;;;;;;21.88;8.68;;;;;;;18.78;100.00;101495.13;4975909;28;20382;-70
2023/07/13 08:37:14;;;;;;;21.05;8.85;;;;;;;18.94;100.00;101504.66;4993623;28;20033;-63
2023/07/13 08:39:39;;;;;;;21.90;8.70;;;;;;;19.09;100.00;101507.94;4993599;28;20030;-69
2023/07/13 08:42:12;;;;;;;21.23;8.57;;;;;;;18.93;100.00;101496.63;4984769;28;20405;-62
2023/07/13 08:45:11;;;;;;;21.33;7.95;;;;;;;18.97;100.00;101509.06;4989706;28;20027;-66
2023/07/13 08:47:43;;;;;;;21.77;7.63;;;;;;;19.42;100.00;101503.66;4989470;28;20073;-68
2023/07/13 08:50:11;;;;;;;;;;;;;;;19.64;100.00;101490.66;4990019;28;20030;-68
2023/07/13 08:52:40;;;;;;;20.40;8.02;;;;;;;19.77;100.00;101499.28;4993526;28;19949;-68
2023/07/13 08:55:21;;;;;;;19.92;8.23;;;;;;;19.47;100.00;101509.81;4993326;28;20026;-70
2023/07/13 08:57:52;;;;;;;20.17;8.25;;;;;;;19.40;100.00;101501.94;4990667;28;20034;-70
2023/07/13 09:00:18;;;;;;;22.20;8.68;;;;;;;19.44;100.00;101493.78;4993113;28;20060;-65
2023/07/13 09:02:53;;;;;;;21.85;7.97;;;;;;;19.66;100.00;101493.31;4993312;28;20066;-69
2023/07/13 09:05:27;;;;;;;23.00;7.75;;;;;;;20.04;100.00;101494.22;4993224;28;20110;-69
2023/07/13 09:08:15;;;;;;;21.98;9.13;;;;;;;19.80;100.00;101496.53;4993499;28;20038;-66
2023/07/13 09:11:06;;;;;;;20.30;8.20;;;;;;;19.94;100.00;101506.09;4985872;28;20061;-68
2023/07/13 09:13:47;;;;;;;22.25;8.15;;;;;;;20.01;100.00;101499.66;4998697;28;20038;-69
2023/07/13 09:16:13;;;;;;;20.63;8.07;;;;;;;19.78;100.00;101495.72;4996592;28;20121;-65
2023/07/13 09:18:43;;;;;;;23.20;8.73;;;;;;;19.90;100.00;101497.22;4999663;28;20058;-68
2023/07/13 09:21:20;;;;;;;20.88;8.35;;;;;;;20.16;100.00;101499.25;4996126;28;20026;-68
2023/07/13 09:23:47;;;;;;;20.10;7.85;;;;;;;20.05;100.00;101506.69;4997013;28;20486;-65
2023/07/13 09:26:24;;;;;;;20.55;7.53;;;;;;;19.82;100.00;101493.84;4999572;28;20049;-69
2023/07/13 09:28:57;;;;;;;20.27;7.20;;;;;;;20.40;100.00;101495.97;4999512;28;20027;-69
2023/07/13 09:31:34;;;;;;;19.38;7.15;;;;;;;20.87;100.00;101489.34;4999514;28;20030;-69
2023/07/13 09:34:00;;;;;;;19.15;6.90;;;;;;;21.03;98.41;101491.59;5017032;28;20053;-68
2023/07/13 09:36:28;;;;;;;19.58;6.90;;;;;;;21.16;90.42;101494.78;5019086;28;20026;-70
2023/07/13 09:39:03;;;;;;;18.83;6.78;;;;;;;20.93;93.58;101496.34;5019045;28;20034;-69
2023/07/13 09:41:55;;;;;;;20.15;7.10;;;;;;;20.81;99.71;101513.69;5018978;28;20116;-69
2023/07/13 09:44:32;;;;;;;;;;;;;;;20.67;98.64;101506.00;5017362;28;20096;-64
2023/07/13 09:46:57;;;;;;;18.40;6.55;;;;;;;20.92;94.63;101508.00;5019040;28;19960;-63
2023/07/13 09:49:25;;;;;;;20.25;6.70;;;;;;;21.05;92.33;101506.72;5019141;28;20160;-69
2023/07/13 09:51:58;;;;;;;19.08;6.53;;;;;;;21.62;89.80;101495.22;5018869;28;20021;-62
2023/07/13 09:54:25;;;;;;;18.10;6.05;;;;;;;21.61;83.87;101498.84;5018853;28;20159;-68
2023/07/13 09:56:56;;;;;;;19.40;6.47;;;;;;;21.90;81.81;101496.09;5001528;28;20030;-69
2023/07/13 09:59:24;;;;;;;16.67;5.55;;;;;;;21.78;76.58;101512.63;5001222;28;20061;-70
2023/07/13 10:01:50;;;;;;;17.55;5.68;;;;;;;21.46;77.49;101502.84;5018829;28;20034;-70
2023/07/13 10:04:20;;;;;;;17.30;5.82;;;;;;;21.47;80.66;101491.19;5019024;28;20026;-69
2023/07/13 10:06:46;;;;;;;17.67;5.55;;;;;;;21.38;79.98;101500.41;5001196;28;20503;-69
2023/07/13 10:09:17;;;;;;;15.45;4.97;;;;;;;22.37;74.03;101505.38;5018828;28;20103;-68
2023/07/13 10:11:44;;;;;;;18.50;4.80;;;;;;;23.04;70.76;101518.22;5015402;28;20036;-67
2023/07/13 10:14:20;;;;;;;15.60;4.78;;;;;;;23.63;65.62;101494.41;5019191;28;20111;-70
2023/07/13 10:16:47;;;;;;;16.45;4.65;;;;;;;23.64;64.09;101501.56;5015816;28;20025;-67
2023/07/13 10:19:20;;;;;;;17.83;4.70;;;;;;;24.57;59.79;101509.41;5013023;28;20082;-69
2023/07/13 10:22:25;;;;;;;15.57;4.47;;;;;;;23.80;62.10;101501.81;5006236;28;20037;-70
2023/07/13 10:24:50;;;;;;;15.90;4.30;;;;;;;23.06;64.36;101510.06;4974879;28;20045;-70
2023/07/13 10:27:19;;;;;;;15.70;3.97;;;;;;;22.40;64.82;101502.56;5015219;28;20030;-68
2023/07/13 10:30:11;;;;;;;15.30;4.30;;;;;;;22.10;68.81;101502.63;5015522;28;20018;-67
2023/07/13 10:32:37;;;;;;;15.80;4.47;;;;;;;21.99;68.07;101496.72;5015554;28;20096;-70
2023/07/13 10:35:03;;;;;;;15.88;4.38;;;;;;;21.46;71.49;101498.34;5015649;28;20077;-69
2023/07/13 10:37:41;;;;;;;18.85;4.10;;;;;;;21.24;72.65;101498.13;5015681;28;20473;-70
2023/07/13 10:40:12;;;;;;;16.63;4.47;;;;;;;20.54;97.06;101510.78;5011819;28;20534;-69
2023/07/13 10:42:42;;;;;;;16.23;4.70;;;;;;;18.94;100.00;101525.19;5012028;28;20502;-68
2023/07/13 10:45:20;;;;;;;22.70;9.45;;;;;;;17.60;100.00;101528.28;5011720;28;20327;-69
2023/07/13 10:47:46;;;;;;;25.92;11.73;;;;;;;16.54;100.00;101538.38;5012980;28;20379;-69
2023/07/13 10:50:22;;;;;;;24.95;12.88;;;;;;;16.62;100.00;101554.34;5015112;28;20029;-67
2023/07/13 10:52:50;;;;;;;24.83;14.30;;;;;;;16.62;100.00;101560.53;5015114;28;20129;-65
2023/07/13 10:55:54;;;;;;;22.75;11.32;;;;;;;16.19;100.00;101555.56;5015432;28;20018;-68
2023/07/13 10:58:22;;;;;;;23.17;12.60;;;;;;;16.29;100.00;101556.38;5013198;28;20073;-67
2023/07/13 11:01:05;;;;;;;23.77;12.35;;;;;;;16.79;100.00;101564.81;5011984;28;20458;-61
2023/07/13 11:03:34;;;;;;;23.23;12.90;;;;;;;18.08;100.00;101547.19;5006346;28;20544;-61
2023/07/13 11:06:12;;;;;;;23.27;11.90;;;;;;;19.85;100.00;101550.13;5013481;28;20026;-63
2023/07/13 11:08:58;;;;;;;20.77;9.13;;;;;;;21.58;100.00;101542.84;5011300;28;20033;-62
2023/07/13 11:11:23;;;;;;;20.15;8.38;;;;;;;23.37;100.00;101542.16;5014471;28;20026;-64